Time;durP1;ratioP1;P1;durP2;ratioP2;P2;SDS_P1;SDS_P2;PMS_P1;PMS_P2;Temp;Humidity;BMP_temperature;BMP_pressure;BME280_temperature;BME280_humidity;BME280_pressure;Samples;Min_cycle;Max_cycle;Signal;HPM_P1;HPM_P2
2021/06/24 00:08:16;;;;;;;17.57;15.97;;;;;;;29.84;51.17;100691.94;20902903;28;20271;-65
2021/06/24 00:18:16;;;;;;;20.93;18.73;;;;;;;29.53;51.66;100711.91;20919293;28;20257;-66
2021/06/24 00:28:17;;;;;;;19.43;17.63;;;;;;;29.36;52.02;100721.59;20917227;28;20238;-68
2021/06/24 00:38:18;;;;;;;18.37;16.57;;;;;;;29.42;51.83;100697.97;20933112;28;20528;-65
2021/06/24 00:58:31;;;;;;;18.90;17.20;;;;;;;29.31;52.60;100696.66;20770352;27;8257849;-65
2021/06/24 01:18:36;;;;;;;20.93;19.03;;;;;;;28.99;53.35;100703.81;20771172;27;8581153;-65
2021/06/24 01:28:37;;;;;;;19.90;18.13;;;;;;;28.87;52.74;100675.25;21058115;28;20239;-65
2021/06/24 01:48:46;;;;;;;19.57;17.70;;;;;;;28.73;53.03;100676.28;20605521;27;8549065;-65
2021/06/24 01:58:46;;;;;;;19.23;17.43;;;;;;;28.56;52.82;100671.16;20893085;28;20281;-64
2021/06/24 02:08:47;;;;;;;19.93;17.90;;;;;;;28.44;52.60;100666.47;20892108;28;20558;-65
2021/06/24 02:18:47;;;;;;;22.27;19.97;;;;;;;28.52;53.06;100671.78;20889937;28;20368;-64
2021/06/24 02:28:48;;;;;;;22.30;20.17;;;;;;;28.51;52.79;100673.66;20889226;28;20465;-68
2021/06/24 02:38:48;;;;;;;19.77;17.97;;;;;;;28.65;52.81;100680.03;20889380;28;20218;-67
2021/06/24 02:48:49;;;;;;;19.77;18.07;;;;;;;28.99;52.61;100660.69;20952710;28;20211;-66
2021/06/24 02:58:50;;;;;;;20.93;18.97;;;;;;;29.62;51.67;100677.63;20921166;28;20876;-69
2021/06/24 03:08:50;;;;;;;19.97;17.90;;;;;;;30.73;50.18;100675.53;20914424;28;20240;-69
2021/06/24 03:18:51;;;;;;;16.53;15.03;;;;;;;31.76;48.90;100698.06;20895603;28;20227;-65
2021/06/24 03:28:51;;;;;;;17.00;15.33;;;;;;;33.46;45.99;100697.91;20912954;28;20219;-66
2021/06/24 03:38:52;;;;;;;16.60;15.13;;;;;;;35.05;44.64;100707.47;20893161;28;20585;-65
2021/06/24 03:48:53;;;;;;;16.43;15.13;;;;;;;36.95;42.48;100694.97;20746220;28;20315;-65
2021/06/24 03:58:54;;;;;;;16.00;14.70;;;;;;;38.79;39.97;100704.22;20745547;28;20244;-63
2021/06/24 04:08:54;;;;;;;17.60;16.10;;;;;;;36.67;41.29;100676.56;20744905;28;20232;-65
2021/06/24 04:18:55;;;;;;;15.97;14.67;;;;;;;36.05;42.91;100676.06;20745106;28;20328;-66
2021/06/24 04:28:55;;;;;;;21.03;19.10;;;;;;;34.94;43.15;100639.06;20743338;28;20244;-65
2021/06/24 04:38:56;;;;;;;20.83;19.03;;;;;;;33.68;45.47;100651.13;20744061;28;20716;-65
2021/06/24 04:48:56;;;;;;;18.80;17.20;;;;;;;33.46;46.01;100682.16;20905991;28;20278;-66
2021/06/24 04:58:57;;;;;;;16.80;15.40;;;;;;;33.90;45.05;100688.22;20906091;28;20246;-65
2021/06/24 05:08:58;;;;;;;21.53;19.40;;;;;;;33.55;45.79;100661.38;20905432;28;20261;-64
2021/06/24 05:18:58;;;;;;;22.70;20.73;;;;;;;32.70;47.91;100618.50;20833196;28;20226;-67
2021/06/24 05:28:58;;;;;;;17.00;15.60;;;;;;;34.19;46.54;100619.84;20769486;28;20231;-66
2021/06/24 05:39:00;;;;;;;17.53;15.90;;;;;;;35.57;44.25;100612.88;20795705;28;20215;-66
2021/06/24 05:49:00;;;;;;;17.07;15.47;;;;;;;37.27;40.84;100625.41;20754503;28;20631;-66
2021/06/24 05:59:03;;;;;;;14.98;13.68;;;;;;;38.74;38.71;100616.91;20817681;28;20220;-66
2021/06/24 06:09:04;;;;;;;16.85;15.35;;;;;;;38.57;38.36;100622.72;20819972;28;20227;-66
2021/06/24 06:19:05;;;;;;;13.23;12.10;;;;;;;37.65;39.71;100626.22;20818155;28;20304;-67
2021/06/24 06:29:05;;;;;;;12.97;11.90;;;;;;;36.23;41.11;100597.13;20825084;28;20303;-68
2021/06/24 06:39:12;;;;;;;11.10;10.20;;;;;;;34.42;43.51;100585.66;20807280;28;20282;-66
2021/06/24 06:49:13;;;;;;;15.50;12.77;;;;;;;33.06;46.82;100654.31;20878998;28;20227;-67
2021/06/24 07:09:36;;;;;;;27.83;15.50;;;;;;;28.10;78.79;100670.97;20564397;27;8268425;-69
2021/06/24 07:45:10;;;;;;;49.17;25.23;;;;;;;28.96;66.50;100759.22;20640949;27;8704662;-63
2021/06/24 07:55:11;;;;;;;27.23;17.63;;;;;;;28.76;65.65;100692.31;20937812;28;20243;-59
2021/06/24 08:05:13;;;;;;;31.90;16.80;;;;;;;29.05;64.99;100647.16;20938911;28;20273;-59
2021/06/24 08:15:18;;;;;;;41.37;24.57;;;;;;;27.68;69.09;100555.97;20937972;28;20218;-62
2021/06/24 08:25:18;;;;;;;49.77;28.87;;;;;;;23.65;100.00;100348.97;20948534;28;20322;-67
2021/06/24 08:48:54;;;;;;;30.30;19.77;;;;;;;23.81;94.26;100330.78;20738343;27;8580370;-75
2021/06/24 09:09:05;;;;;;;21.23;11.10;;;;;;;24.81;90.42;100432.25;20654118;28;8592452;-65
2021/06/24 09:29:21;;;;;;;16.40;9.97;;;;;;;26.09;91.65;100542.84;20675457;27;8326973;-62
2021/06/24 09:59:23;;;;;;;24.60;12.40;;;;;;;29.10;91.81;100633.66;20599827;27;8065941;-61
2021/06/24 10:09:24;;;;;;;15.87;10.43;;;;;;;30.74;88.17;100615.75;20870148;28;20239;-64
2021/06/24 10:19:30;;;;;;;24.50;14.45;;;;;;;30.67;96.27;100626.00;20869751;28;20606;-63
2021/06/24 10:29:44;;;;;;;19.80;12.93;;;;;;;30.16;89.59;100628.81;20886139;28;20234;-63
2021/06/24 10:39:44;;;;;;;14.45;10.68;;;;;;;28.25;89.33;100618.72;20889500;28;20306;-61
2021/06/24 10:59:52;;;;;;;11.87;10.27;;;;;;;27.67;90.54;100599.00;20770186;27;8304831;-60
2021/06/24 11:29:55;;;;;;;13.20;9.40;;;;;;;28.50;91.51;100567.63;20770404;27;8284819;-60
2021/06/24 11:39:57;;;;;;;16.30;9.20;;;;;;;28.95;91.64;100571.50;21058420;28;20282;-63
2021/06/24 12:00:46;;;;;;;10.20;7.10;;;;;;;29.33;90.86;100548.84;21056383;28;20210;-63
2021/06/24 12:10:46;;;;;;;13.23;8.37;;;;;;;29.79;93.01;100534.94;21052569;28;20210;-61
2021/06/24 12:20:47;;;;;;;12.80;8.87;;;;;;;30.09;92.70;100529.72;20997732;28;20241;-60
2021/06/24 12:30:51;;;;;;;14.17;9.10;;;;;;;30.24;94.28;100521.16;21031786;28;20456;-60
2021/06/24 12:40:54;;;;;;;9.63;6.90;;;;;;;30.59;90.22;100519.66;20974907;28;20222;-62
2021/06/24 12:51:00;;;;;;;9.75;6.72;;;;;;;30.26;90.35;100513.53;20973748;28;20313;-63
2021/06/24 13:01:14;;;;;;;10.18;7.72;;;;;;;30.03;91.87;100503.94;20973239;28;20218;-65
2021/06/24 13:11:19;;;;;;;13.60;8.60;;;;;;;30.32;94.08;100494.19;20971136;28;21016;-65
2021/06/24 13:21:20;;;;;;;10.73;7.30;;;;;;;30.82;93.12;100472.19;20954590;28;20462;-65
2021/06/24 13:31:23;;;;;;;9.73;6.97;;;;;;;30.59;91.45;100478.31;20971184;28;20217;-64
2021/06/24 13:41:26;;;;;;;9.90;7.40;;;;;;;30.68;93.43;100462.34;20970662;28;20504;-65
2021/06/24 13:51:27;;;;;;;13.65;8.52;;;;;;;31.91;97.49;100462.19;20968751;28;20212;-64
2021/06/24 14:01:28;;;;;;;7.73;5.87;;;;;;;31.53;90.33;100449.53;20968917;28;20222;-65
2021/06/24 14:11:28;;;;;;;10.35;7.95;;;;;;;32.73;91.58;100443.91;20967182;28;21368;-64
2021/06/24 14:21:29;;;;;;;13.20;8.20;;;;;;;32.94;90.81;100440.53;20967416;28;20235;-64
2021/06/24 14:31:30;;;;;;;10.45;7.63;;;;;;;33.84;90.19;100446.34;20966431;28;20256;-64
2021/06/24 14:41:31;;;;;;;9.48;7.30;;;;;;;34.10;90.02;100444.03;20966110;28;20219;-66
2021/06/24 14:51:32;;;;;;;8.55;7.53;;;;;;;33.46;86.84;100432.25;20946779;28;20223;-65
2021/06/24 15:01:33;;;;;;;9.02;7.68;;;;;;;33.77;90.29;100423.50;20963177;28;20748;-65
2021/06/24 15:29:16;;;;;;;7.85;7.05;;;;;;;30.31;89.22;100379.59;20823649;27;8181579;-63
2021/06/24 15:39:17;;;;;;;8.02;7.30;;;;;;;29.92;90.20;100374.41;21093662;28;20244;-58
2021/06/24 15:49:18;;;;;;;10.35;9.00;;;;;;;30.49;92.34;100342.16;21033531;28;20694;-66
2021/06/24 15:59:18;;;;;;;8.57;7.22;;;;;;;30.80;89.36;100336.53;21044549;28;20214;-60
2021/06/24 16:09:21;;;;;;;7.18;6.57;;;;;;;31.26;91.03;100326.88;21024957;28;20221;-62
2021/06/24 16:19:21;;;;;;;8.65;7.22;;;;;;;31.94;91.63;100359.59;21038845;28;20214;-58
2021/06/24 16:29:22;;;;;;;8.88;6.72;;;;;;;31.54;88.78;100367.59;20978536;28;20229;-64
2021/06/24 16:39:22;;;;;;;7.68;6.22;;;;;;;31.22;88.79;100364.25;20976119;28;20222;-58
2021/06/24 16:49:23;;;;;;;7.60;6.88;;;;;;;31.30;88.90;100322.56;20981852;28;20279;-61
2021/06/24 16:59:23;;;;;;;7.85;6.68;;;;;;;31.55;90.02;100309.44;20964341;28;20221;-62
2021/06/24 17:09:24;;;;;;;7.25;6.45;;;;;;;30.57;87.45;100259.25;20983729;28;20544;-58
2021/06/24 17:19:24;;;;;;;8.23;6.85;;;;;;;30.00;91.26;100272.34;20958732;28;20222;-59
2021/06/24 17:29:25;;;;;;;8.43;6.22;;;;;;;29.91;90.87;100306.69;20953658;28;20302;-62
2021/06/24 17:39:25;;;;;;;6.35;5.32;;;;;;;29.87;91.03;100327.47;20960332;28;20207;-60
2021/06/24 17:49:26;;;;;;;5.97;5.27;;;;;;;29.27;92.11;100365.47;20977238;28;20348;-60
2021/06/24 17:59:27;;;;;;;7.93;5.40;;;;;;;29.06;93.17;100385.03;20967474;28;20222;-60
2021/06/24 18:09:27;;;;;;;6.23;5.60;;;;;;;28.43;93.22;100368.28;20968382;28;20218;-58
2021/06/24 18:19:31;;;;;;;6.73;5.93;;;;;;;27.74;93.83;100355.81;20973022;28;20290;-59
2021/06/24 18:29:32;;;;;;;5.97;5.23;;;;;;;27.63;95.06;100393.97;20935240;28;20222;-57
2021/06/24 18:39:33;;;;;;;6.57;5.87;;;;;;;27.52;96.18;100344.16;20946548;28;20256;-58
2021/06/24 18:49:33;;;;;;;9.10;6.20;;;;;;;27.89;97.64;100394.03;20953163;28;20314;-57
2021/06/24 18:59:34;;;;;;;8.50;6.27;;;;;;;28.17;98.23;100446.78;20976150;28;20301;-58
2021/06/24 19:09:35;;;;;;;8.00;6.37;;;;;;;28.21;97.20;100486.53;20944334;28;20228;-59
2021/06/24 19:19:35;;;;;;;9.27;6.93;;;;;;;27.92;96.49;100514.28;20970639;28;20222;-58
2021/06/24 19:29:36;;;;;;;11.53;7.83;;;;;;;27.33;92.50;100601.72;20961354;28;20229;-58
2021/06/24 19:39:36;;;;;;;8.53;5.83;;;;;;;25.47;91.91;100658.97;20945460;28;20223;-62
2021/06/24 19:49:37;;;;;;;9.63;6.73;;;;;;;25.03;92.21;100592.47;20951711;28;20228;-59
2021/06/24 19:59:37;;;;;;;14.50;9.00;;;;;;;24.77;94.23;100584.63;20961159;28;20287;-61
2021/06/24 20:19:45;;;;;;;11.73;8.50;;;;;;;24.68;93.68;100460.19;20572781;27;8342742;-63
2021/06/24 20:29:45;;;;;;;11.70;9.57;;;;;;;24.30;92.93;100500.28;20868035;28;20223;-63
2021/06/24 21:29:38;;;;;;;5.73;5.20;;;;;;;23.85;92.61;100273.00;20487383;27;8284588;-59
2021/06/24 21:39:38;;;;;;;11.63;8.80;;;;;;;23.47;95.40;100241.31;20797429;28;20227;-58
2021/06/24 21:49:41;;;;;;;12.27;9.77;;;;;;;23.29;95.31;100272.44;20775229;28;20729;-60
2021/06/24 22:19:45;;;;;;;13.03;11.60;;;;;;;23.31;95.72;100308.47;20595425;27;8256698;-60
2021/06/24 22:59:42;;;;;;;11.47;8.87;;;;;;;23.19;96.44;100375.28;20533391;27;10984550;-60
2021/06/24 23:29:45;;;;;;;12.30;9.30;;;;;;;23.86;94.67;100435.50;20518140;27;8244386;-59
2021/06/24 23:49:54;;;;;;;11.77;8.13;;;;;;;23.88;94.66;100438.91;20753535;27;8362069;-60
2021/06/24 23:59:54;;;;;;;14.90;10.13;;;;;;;23.56;97.11;100439.09;21034510;28;20229;-60
